createdAt,value
2023-05-05T00:01:08.723Z,59.87
2023-05-05T00:03:35.680Z,59.38
2023-05-05T00:06:02.297Z,59.79
2023-05-05T00:08:28.835Z,59.29
2023-05-05T00:10:56.511Z,60.14
2023-05-05T00:13:23.598Z,60.48
2023-05-05T00:15:52.464Z,60.98
2023-05-05T00:18:19.824Z,61.25
2023-05-05T00:20:47.240Z,61.41
2023-05-05T00:23:17.398Z,61.43
2023-05-05T00:25:43.814Z,61.28
2023-05-05T00:28:10.500Z,61.51
2023-05-05T00:30:37.958Z,61.45
2023-05-05T00:33:04.510Z,61.74
2023-05-05T00:35:30.943Z,62.28
2023-05-05T00:37:58.141Z,62.20
2023-05-05T00:40:25.242Z,62.10
2023-05-05T00:42:52.118Z,61.79
2023-05-05T00:45:19.783Z,61.96
2023-05-05T00:47:52.434Z,61.50
2023-05-05T00:50:30.183Z,61.56
2023-05-05T00:53:00.389Z,61.67
2023-05-05T00:55:28.278Z,62.10
2023-05-05T00:57:55.114Z,61.60
2023-05-05T01:00:22.001Z,62.16
2023-05-05T01:02:48.599Z,62.48
2023-05-05T01:05:16.297Z,62.92
2023-05-05T01:08:20.959Z,62.96
2023-05-05T01:10:57.478Z,62.91
2023-05-05T01:13:39.764Z,63.20
2023-05-05T01:16:14.174Z,63.34
2023-05-05T01:18:47.584Z,63.47
2023-05-05T01:21:23.454Z,64.06
2023-05-05T01:24:22.561Z,63.74
2023-05-05T01:27:13.811Z,64.22
2023-05-05T01:30:03.278Z,64.20
2023-05-05T01:32:38.479Z,64.48
2023-05-05T01:35:18.180Z,64.17
2023-05-05T01:38:09.676Z,63.33
2023-05-05T01:40:45.117Z,64.24
2023-05-05T01:43:13.456Z,63.84
2023-05-05T01:45:42.749Z,64.03
2023-05-05T01:48:09.566Z,64.08
2023-05-05T01:50:36.795Z,64.28
2023-05-05T01:53:05.179Z,64.65
2023-05-05T01:55:32.516Z,64.38
2023-05-05T01:58:00.124Z,63.84
2023-05-05T02:00:27.309Z,63.96
2023-05-05T02:02:56.838Z,64.32
2023-05-05T02:05:24.890Z,64.00
2023-05-05T02:07:54.952Z,63.58
2023-05-05T02:10:21.539Z,63.62
2023-05-05T02:12:49.347Z,63.33
2023-05-05T02:15:16.809Z,63.25
2023-05-05T02:17:45.267Z,63.29
2023-05-05T02:20:13.940Z,62.75
2023-05-05T02:22:41.062Z,63.13
2023-05-05T02:25:08.652Z,62.99
2023-05-05T02:27:36.314Z,62.80
2023-05-05T02:30:09.775Z,62.74
2023-05-05T02:32:44.026Z,62.79
2023-05-05T02:35:26.736Z,63.15
2023-05-05T02:38:02.814Z,62.94
2023-05-05T02:40:31.690Z,62.96
2023-05-05T02:43:01.227Z,63.22
2023-05-05T02:45:28.646Z,62.87
2023-05-05T02:47:55.069Z,63.20
2023-05-05T02:50:21.550Z,62.97
2023-05-05T02:52:48.187Z,63.01
2023-05-05T02:55:15.582Z,62.76
2023-05-05T02:57:57.453Z,63.37
2023-05-05T03:00:29.786Z,62.95
2023-05-05T03:03:14.140Z,63.05
2023-05-05T03:05:55.821Z,63.25
2023-05-05T03:08:36.756Z,63.26
2023-05-05T03:11:11.320Z,63.16
2023-05-05T03:13:42.876Z,63.13
2023-05-05T03:16:10.820Z,63.38
2023-05-05T03:18:38.387Z,63.17
2023-05-05T03:21:08.816Z,63.43
2023-05-05T03:23:36.352Z,63.12
2023-05-05T03:26:02.900Z,63.48
2023-05-05T03:28:29.365Z,63.59
2023-05-05T03:30:56.189Z,63.26
2023-05-05T03:33:22.564Z,63.42
2023-05-05T03:35:49.208Z,63.67
2023-05-05T03:38:15.624Z,63.93
2023-05-05T03:40:44.542Z,63.87
2023-05-05T03:43:11.532Z,64.20
2023-05-05T03:45:38.455Z,64.09
2023-05-05T03:48:05.272Z,64.07
2023-05-05T03:50:31.781Z,64.67
2023-05-05T03:52:58.147Z,64.78
2023-05-05T03:55:24.613Z,64.62
2023-05-05T03:57:51.090Z,64.89
2023-05-05T04:00:18.004Z,65.07
2023-05-05T04:02:44.601Z,64.27
2023-05-05T04:05:11.017Z,64.36
2023-05-05T04:07:37.450Z,64.84
2023-05-05T04:10:03.955Z,64.60
2023-05-05T04:12:30.408Z,64.38
2023-05-05T04:14:56.802Z,64.48
2023-05-05T04:17:23.399Z,64.34
2023-05-05T04:19:49.824Z,64.97
2023-05-05T04:22:16.590Z,64.84
2023-05-05T04:24:42.983Z,64.64
2023-05-05T04:27:09.344Z,64.58
2023-05-05T04:29:36.045Z,64.83
2023-05-05T04:32:02.615Z,64.95
2023-05-05T04:34:29.010Z,64.93
2023-05-05T04:36:55.663Z,64.98
2023-05-05T04:39:22.170Z,64.74
2023-05-05T04:41:48.544Z,64.63
2023-05-05T04:44:14.905Z,63.91
2023-05-05T04:46:41.461Z,63.79
2023-05-05T04:49:09.122Z,63.82
2023-05-05T04:51:35.611Z,63.93
2023-05-05T04:54:02.161Z,63.65
2023-05-05T04:56:31.041Z,63.51
2023-05-05T04:58:57.403Z,63.01
2023-05-05T05:01:23.912Z,62.96
2023-05-05T05:03:51.040Z,62.97
2023-05-05T05:06:17.460Z,63.29
2023-05-05T05:08:43.817Z,63.01
2023-05-05T05:11:10.250Z,63.37
2023-05-05T05:13:36.646Z,62.56
2023-05-05T05:16:03.063Z,62.68
2023-05-05T05:18:29.427Z,62.23
2023-05-05T05:20:56.138Z,62.31
2023-05-05T05:23:22.491Z,62.77
2023-05-05T05:25:48.947Z,62.86
2023-05-05T05:28:15.628Z,62.80
2023-05-05T05:30:42.004Z,62.56
2023-05-05T05:33:08.443Z,62.43
2023-05-05T05:35:34.972Z,62.10
2023-05-05T05:38:01.425Z,61.82
2023-05-05T05:40:27.807Z,61.48
2023-05-05T05:42:54.235Z,61.01
2023-05-05T05:45:21.671Z,60.90
2023-05-05T05:47:48.051Z,61.27
2023-05-05T05:50:14.493Z,61.01
2023-05-05T05:52:41.008Z,61.08
2023-05-05T05:55:08.165Z,60.99
2023-05-05T05:57:34.539Z,61.17
2023-05-05T06:00:01.981Z,61.19
2023-05-05T06:02:28.922Z,61.18
2023-05-05T06:04:55.464Z,60.88
2023-05-05T06:07:21.885Z,60.76
2023-05-05T06:09:48.434Z,61.18
2023-05-05T06:12:14.978Z,60.52
2023-05-05T06:14:41.672Z,60.43
2023-05-05T06:17:08.140Z,60.00
2023-05-05T06:19:35.415Z,60.19
2023-05-05T06:22:02.024Z,59.80
2023-05-05T06:24:29.073Z,59.86
2023-05-05T06:26:55.450Z,59.47
2023-05-05T06:29:22.269Z,59.27
2023-05-05T06:31:48.681Z,59.03
2023-05-05T06:34:15.189Z,58.72
2023-05-05T06:36:41.620Z,58.73
2023-05-05T06:39:08.087Z,58.56
2023-05-05T06:41:34.457Z,58.50
2023-05-05T06:44:01.379Z,57.47
2023-05-05T06:46:27.775Z,58.05
2023-05-05T06:48:54.131Z,57.74
2023-05-05T06:51:20.905Z,57.03
2023-05-05T06:53:47.255Z,57.55
2023-05-05T06:56:14.701Z,57.23
2023-05-05T06:58:42.218Z,57.51
2023-05-05T07:01:08.780Z,57.22
2023-05-05T07:03:35.244Z,56.73
2023-05-05T07:06:01.659Z,56.59
2023-05-05T07:08:28.134Z,56.31
2023-05-05T07:10:54.541Z,55.96
2023-05-05T07:13:20.965Z,55.82
2023-05-05T07:15:47.390Z,55.50
2023-05-05T07:18:14.336Z,55.43
2023-05-05T07:20:40.810Z,55.20
2023-05-05T07:23:07.192Z,55.20
2023-05-05T07:25:33.913Z,54.38
2023-05-05T07:28:00.566Z,55.08
2023-05-05T07:30:27.090Z,54.80
2023-05-05T07:32:55.036Z,54.32
2023-05-05T07:35:21.730Z,54.52
2023-05-05T07:37:48.380Z,54.50
2023-05-05T07:40:15.074Z,54.00
2023-05-05T07:42:41.578Z,53.33
2023-05-05T07:45:08.438Z,53.37
2023-05-05T07:47:34.877Z,53.21
2023-05-05T07:50:01.492Z,52.99
2023-05-05T07:52:44.188Z,53.16
2023-05-05T07:55:12.775Z,53.34
2023-05-05T07:57:39.160Z,53.01
2023-05-05T08:00:06.327Z,53.07
2023-05-05T08:02:33.013Z,52.56
2023-05-05T08:04:59.428Z,52.83
2023-05-05T08:07:25.869Z,52.77
2023-05-05T08:09:52.341Z,52.45
2023-05-05T08:12:19.355Z,51.84
2023-05-05T08:14:45.829Z,51.83
2023-05-05T08:17:12.230Z,51.80
2023-05-05T08:19:38.695Z,51.38
2023-05-05T08:22:05.044Z,51.47
2023-05-05T08:24:31.464Z,51.41
2023-05-05T08:26:58.152Z,51.30
2023-05-05T08:29:24.546Z,50.43
2023-05-05T08:31:51.304Z,50.03
2023-05-05T08:34:17.717Z,50.44
2023-05-05T08:36:44.160Z,49.77
2023-05-05T08:39:10.744Z,49.13
2023-05-05T08:41:37.289Z,48.89
2023-05-05T08:44:03.884Z,48.27
2023-05-05T08:46:31.167Z,47.27
2023-05-05T08:48:58.671Z,47.49
2023-05-05T08:51:28.475Z,47.21
2023-05-05T08:53:54.953Z,47.02
2023-05-05T08:56:22.005Z,47.02
2023-05-05T08:58:49.465Z,47.68
2023-05-05T09:01:17.118Z,47.53
2023-05-05T09:03:46.740Z,47.27
2023-05-05T09:06:13.307Z,46.81
2023-05-05T09:08:39.941Z,46.86
2023-05-05T09:11:06.663Z,46.82
2023-05-05T09:13:33.309Z,46.29
2023-05-05T09:15:59.951Z,45.78
2023-05-05T09:18:26.831Z,45.06
2023-05-05T09:20:53.216Z,44.77
2023-05-05T09:23:20.891Z,44.04
2023-05-05T09:26:02.266Z,41.73
2023-05-05T09:28:28.919Z,41.96
2023-05-05T09:30:55.506Z,41.78
2023-05-05T09:33:31.335Z,42.53
2023-05-05T09:35:58.303Z,43.26
2023-05-05T09:38:25.291Z,43.27
2023-05-05T09:40:53.460Z,42.87
2023-05-05T09:43:21.894Z,42.64
2023-05-05T09:45:49.173Z,43.36
2023-05-05T09:48:29.959Z,42.97
2023-05-05T09:50:57.402Z,42.38
2023-05-05T09:53:25.093Z,42.54
2023-05-05T09:55:59.586Z,42.43
2023-05-05T09:58:27.736Z,42.44
2023-05-05T10:00:58.513Z,42.49
2023-05-05T10:03:25.607Z,41.85
2023-05-05T10:05:54.422Z,41.03
2023-05-05T10:08:23.215Z,41.11
2023-05-05T10:10:51.546Z,41.55
2023-05-05T10:13:20.713Z,41.29
2023-05-05T10:15:49.975Z,40.38
2023-05-05T10:18:20.250Z,40.50
2023-05-05T10:20:50.914Z,40.78
2023-05-05T10:23:20.346Z,41.06
2023-05-05T10:25:55.556Z,39.39
2023-05-05T10:29:03.133Z,40.00
2023-05-05T10:31:41.524Z,38.73
2023-05-05T10:34:17.500Z,37.84
2023-05-05T10:36:44.975Z,37.69
2023-05-05T10:39:11.879Z,37.85
2023-05-05T10:41:38.808Z,38.03
2023-05-05T10:44:06.683Z,38.38
2023-05-05T10:46:33.365Z,37.89
2023-05-05T10:49:16.158Z,37.76
2023-05-05T10:52:02.213Z,37.77
2023-05-05T10:54:55.757Z,37.59
2023-05-05T10:57:26.807Z,37.32
2023-05-05T10:59:53.475Z,36.97
2023-05-05T11:02:29.710Z,37.11
2023-05-05T11:05:18.221Z,36.74
2023-05-05T11:07:46.130Z,36.51
2023-05-05T11:10:14.435Z,36.81
2023-05-05T11:13:07.681Z,36.52
2023-05-05T11:15:37.486Z,36.49
2023-05-05T11:18:07.535Z,36.20
2023-05-05T11:20:39.480Z,35.65
2023-05-05T11:23:06.066Z,35.67
2023-05-05T11:25:36.018Z,35.51
2023-05-05T11:28:19.940Z,34.87
2023-05-05T11:30:55.830Z,35.49
2023-05-05T11:33:29.727Z,35.70
2023-05-05T11:35:56.213Z,35.49
2023-05-05T11:38:27.440Z,34.92
2023-05-05T11:41:05.719Z,35.00
2023-05-05T11:43:32.154Z,35.49
2023-05-05T11:46:12.384Z,35.47
2023-05-05T11:48:49.068Z,35.18
2023-05-05T11:51:19.209Z,34.84
2023-05-05T11:53:47.719Z,34.64
2023-05-05T11:56:22.361Z,34.94
2023-05-05T11:59:04.595Z,34.97
2023-05-05T12:01:31.040Z,34.99
2023-05-05T12:03:57.631Z,35.54
2023-05-05T12:06:24.156Z,34.77
2023-05-05T12:08:50.639Z,34.75
2023-05-05T12:11:17.200Z,34.59
2023-05-05T12:13:43.574Z,35.04
2023-05-05T12:16:14.847Z,34.45
2023-05-05T12:18:42.010Z,34.63
2023-05-05T12:21:18.196Z,34.35
2023-05-05T12:23:45.283Z,34.63
2023-05-05T12:26:28.886Z,34.82
2023-05-05T12:28:56.137Z,35.11
2023-05-05T12:31:22.670Z,34.89
2023-05-05T12:33:50.249Z,34.58
2023-05-05T12:36:16.868Z,34.54
2023-05-05T12:38:43.793Z,34.19
2023-05-05T12:41:10.162Z,34.32
2023-05-05T12:43:36.805Z,33.52
2023-05-05T12:46:11.069Z,32.63
2023-05-05T12:48:39.834Z,32.71
2023-05-05T12:51:16.220Z,33.18
2023-05-05T12:53:43.067Z,32.62
2023-05-05T12:56:31.777Z,32.44
2023-05-05T12:58:58.189Z,32.53
2023-05-05T13:01:25.177Z,32.90
2023-05-05T13:04:11.918Z,33.24
2023-05-05T13:06:45.988Z,32.49
2023-05-05T13:09:33.999Z,32.16
2023-05-05T13:12:02.790Z,32.01
2023-05-05T13:14:30.708Z,32.07
2023-05-05T13:16:57.719Z,31.24
2023-05-05T13:19:25.053Z,31.70
2023-05-05T13:21:55.532Z,31.55
2023-05-05T13:24:34.308Z,31.29
2023-05-05T13:27:09.167Z,31.72
2023-05-05T13:29:35.836Z,31.69
2023-05-05T13:32:02.246Z,31.14
2023-05-05T13:34:28.801Z,31.23
2023-05-05T13:36:55.257Z,30.70
2023-05-05T13:39:21.681Z,30.48
2023-05-05T13:41:48.059Z,31.17
2023-05-05T13:44:14.501Z,30.98
2023-05-05T13:46:44.324Z,31.50
2023-05-05T13:49:11.141Z,30.78
2023-05-05T13:51:38.941Z,30.91
2023-05-05T13:54:06.458Z,30.22
2023-05-05T13:56:33.755Z,30.45
2023-05-05T13:59:00.824Z,30.55
2023-05-05T14:01:27.505Z,30.96
2023-05-05T14:03:56.200Z,31.27
2023-05-05T14:06:23.580Z,31.20
2023-05-05T14:08:50.005Z,31.62
2023-05-05T14:11:20.322Z,30.77
2023-05-05T14:13:47.469Z,30.67
2023-05-05T14:16:13.939Z,30.50
2023-05-05T14:18:40.448Z,30.46
2023-05-05T14:21:06.854Z,30.14
2023-05-05T14:23:35.789Z,30.51
2023-05-05T14:26:02.130Z,30.56
2023-05-05T14:28:28.549Z,29.87
2023-05-05T14:30:54.989Z,30.06
2023-05-05T14:33:22.173Z,30.87
2023-05-05T14:35:48.679Z,31.08
2023-05-05T14:38:15.092Z,30.84
2023-05-05T14:40:41.553Z,30.81
2023-05-05T14:43:07.944Z,31.40
2023-05-05T14:45:34.450Z,30.61
2023-05-05T14:48:00.867Z,30.58
2023-05-05T14:50:27.299Z,30.99
2023-05-05T14:52:53.651Z,30.71
2023-05-05T14:55:20.020Z,31.11
2023-05-05T14:57:46.459Z,30.98
2023-05-05T15:00:13.269Z,30.75
2023-05-05T15:02:39.662Z,31.18
2023-05-05T15:05:07.274Z,31.76
2023-05-05T15:07:33.800Z,31.20
2023-05-05T15:10:00.212Z,31.58
2023-05-05T15:12:26.938Z,31.33
2023-05-05T15:14:53.340Z,31.50
2023-05-05T15:17:19.751Z,31.18
2023-05-05T15:19:46.221Z,30.91
2023-05-05T15:22:12.569Z,30.72
2023-05-05T15:24:39.266Z,31.15
2023-05-05T15:27:05.704Z,30.89
2023-05-05T15:29:32.103Z,30.82
2023-05-05T15:31:58.885Z,31.18
2023-05-05T15:34:26.164Z,30.83
2023-05-05T15:36:52.821Z,30.93
2023-05-05T15:39:19.254Z,30.87
2023-05-05T15:41:45.653Z,30.67
2023-05-05T15:44:12.361Z,30.39
2023-05-05T15:46:39.159Z,30.89
2023-05-05T15:49:05.602Z,30.44
2023-05-05T15:51:32.345Z,31.29
2023-05-05T15:53:59.405Z,31.67
2023-05-05T15:56:29.302Z,30.59
2023-05-05T15:58:56.633Z,31.19
2023-05-05T16:01:23.099Z,31.34
2023-05-05T16:03:49.543Z,31.06
2023-05-05T16:06:15.962Z,30.96
2023-05-05T16:08:42.315Z,31.29
2023-05-05T16:11:08.666Z,31.25
2023-05-05T16:13:35.365Z,31.30
2023-05-05T16:16:01.748Z,31.88
2023-05-05T16:18:28.148Z,31.38
2023-05-05T16:20:54.527Z,31.92
2023-05-05T16:23:21.044Z,32.22
2023-05-05T16:25:47.452Z,32.86
2023-05-05T16:28:13.800Z,32.14
2023-05-05T16:30:42.652Z,32.43
2023-05-05T16:33:09.063Z,32.49
2023-05-05T16:35:36.152Z,33.03
2023-05-05T16:38:02.527Z,32.63
2023-05-05T16:40:29.387Z,32.95
2023-05-05T16:42:55.764Z,33.33
2023-05-05T16:45:22.510Z,33.14
2023-05-05T16:47:49.063Z,33.80
2023-05-05T16:50:17.273Z,33.79
2023-05-05T16:52:43.658Z,33.87
2023-05-05T16:55:10.255Z,33.98
2023-05-05T16:57:36.750Z,34.67
2023-05-05T17:00:04.728Z,34.55
2023-05-05T17:02:31.262Z,34.64
2023-05-05T17:04:57.752Z,35.08
2023-05-05T17:07:24.202Z,35.46
2023-05-05T17:09:51.335Z,35.43
2023-05-05T17:12:17.787Z,35.48
2023-05-05T17:14:45.363Z,35.88
2023-05-05T17:17:11.942Z,35.48
2023-05-05T17:19:38.382Z,35.63
2023-05-05T17:22:04.882Z,35.84
2023-05-05T17:24:31.355Z,36.17
2023-05-05T17:26:58.340Z,36.26
2023-05-05T17:29:24.853Z,36.18
2023-05-05T17:31:51.633Z,36.57
2023-05-05T17:34:18.134Z,36.81
2023-05-05T17:36:44.597Z,36.84
2023-05-05T17:39:11.448Z,37.07
2023-05-05T17:41:37.826Z,37.02
2023-05-05T17:44:04.313Z,37.33
2023-05-05T17:46:30.752Z,37.37
2023-05-05T17:48:57.243Z,37.50
2023-05-05T17:51:23.698Z,37.49
2023-05-05T17:53:50.044Z,37.90
2023-05-05T17:56:16.407Z,37.98
2023-05-05T17:58:43.146Z,37.99
2023-05-05T18:01:13.507Z,38.06
2023-05-05T18:03:41.016Z,37.92
2023-05-05T18:06:07.709Z,38.09
2023-05-05T18:08:34.073Z,38.26
2023-05-05T18:11:00.438Z,38.47
2023-05-05T18:13:26.800Z,38.62
2023-05-05T18:15:53.180Z,38.88
2023-05-05T18:18:19.655Z,38.92
2023-05-05T18:20:46.465Z,39.03
2023-05-05T18:23:12.856Z,38.99
2023-05-05T18:25:39.219Z,39.60
2023-05-05T18:28:05.723Z,40.40
2023-05-05T18:30:32.768Z,41.80
2023-05-05T18:32:59.495Z,42.13
2023-05-05T18:35:26.016Z,42.55
2023-05-05T18:37:52.449Z,42.93
2023-05-05T18:40:18.871Z,43.12
2023-05-05T18:42:45.417Z,43.25
2023-05-05T18:45:11.892Z,43.87
2023-05-05T18:47:41.661Z,44.17
2023-05-05T18:50:09.874Z,43.94
2023-05-05T18:52:36.276Z,44.12
2023-05-05T18:55:02.680Z,44.52
2023-05-05T18:57:29.120Z,44.45
2023-05-05T18:59:55.499Z,44.53
2023-05-05T19:02:21.913Z,44.50
2023-05-05T19:04:48.317Z,44.69
2023-05-05T19:07:27.578Z,44.72
2023-05-05T19:10:00.556Z,44.95
2023-05-05T19:12:26.930Z,45.04
2023-05-05T19:14:53.329Z,44.83
2023-05-05T19:17:19.868Z,45.17
2023-05-05T19:19:46.552Z,44.92
2023-05-05T19:22:12.916Z,45.28
2023-05-05T19:24:39.331Z,45.23
2023-05-05T19:27:07.021Z,45.42
2023-05-05T19:29:33.748Z,45.47
2023-05-05T19:32:00.234Z,45.59
2023-05-05T19:34:26.912Z,45.50
2023-05-05T19:36:53.283Z,45.89
2023-05-05T19:39:19.655Z,45.57
2023-05-05T19:41:46.228Z,45.78
2023-05-05T19:44:12.573Z,45.97
2023-05-05T19:46:39.258Z,45.98
2023-05-05T19:49:06.324Z,45.85
2023-05-05T19:51:32.734Z,46.16
2023-05-05T19:53:59.465Z,46.36
2023-05-05T19:56:26.200Z,46.46
2023-05-05T19:58:58.822Z,46.67
2023-05-05T20:01:25.672Z,46.76
2023-05-05T20:03:55.262Z,46.94
2023-05-05T20:06:22.193Z,47.23
2023-05-05T20:08:48.530Z,47.13
2023-05-05T20:11:16.790Z,47.13
2023-05-05T20:13:43.305Z,47.35
2023-05-05T20:16:11.990Z,47.36
2023-05-05T20:18:38.708Z,47.50
2023-05-05T20:21:05.109Z,47.45
2023-05-05T20:23:31.899Z,47.24
2023-05-05T20:25:58.764Z,47.40
2023-05-05T20:28:25.344Z,47.43
2023-05-05T20:30:51.693Z,47.74
2023-05-05T20:33:18.082Z,47.75
2023-05-05T20:35:44.490Z,48.00
2023-05-05T20:38:11.162Z,47.95
2023-05-05T20:40:37.681Z,48.25
2023-05-05T20:43:04.230Z,48.40
2023-05-05T20:45:31.735Z,48.69
2023-05-05T20:47:58.668Z,49.01
2023-05-05T20:50:25.217Z,49.39
2023-05-05T20:52:51.589Z,49.48
2023-05-05T20:55:18.014Z,49.50
2023-05-05T20:57:44.381Z,49.54
2023-05-05T21:00:11.334Z,49.50
2023-05-05T21:02:37.983Z,49.34
2023-05-05T21:05:05.200Z,49.23
2023-05-05T21:07:35.448Z,49.33
2023-05-05T21:10:02.810Z,49.31
2023-05-05T21:12:29.913Z,49.30
2023-05-05T21:14:58.539Z,49.18
2023-05-05T21:17:28.985Z,49.31
2023-05-05T21:19:56.132Z,49.53
2023-05-05T21:22:22.524Z,49.27
2023-05-05T21:24:49.009Z,49.08
2023-05-05T21:27:15.467Z,49.60
2023-05-05T21:29:41.961Z,49.66
2023-05-05T21:32:10.243Z,49.60
2023-05-05T21:34:37.957Z,49.51
2023-05-05T21:37:05.056Z,49.55
2023-05-05T21:39:33.038Z,49.64
2023-05-05T21:42:00.557Z,49.78
2023-05-05T21:44:28.107Z,49.78
2023-05-05T21:46:54.924Z,49.88
2023-05-05T21:49:21.341Z,49.96
2023-05-05T21:51:47.675Z,50.19
2023-05-05T21:54:14.034Z,50.39
2023-05-05T21:56:40.526Z,50.36
2023-05-05T21:59:07.000Z,50.88
2023-05-05T22:01:33.414Z,51.10
2023-05-05T22:03:59.884Z,51.16
2023-05-05T22:06:26.274Z,51.20
2023-05-05T22:08:52.677Z,51.28
2023-05-05T22:11:19.121Z,51.01
2023-05-05T22:13:46.372Z,50.85
2023-05-05T22:16:12.864Z,51.30
2023-05-05T22:18:39.395Z,51.54
2023-05-05T22:21:05.999Z,51.52
2023-05-05T22:23:32.601Z,52.70
2023-05-05T22:25:59.012Z,53.25
2023-05-05T22:28:26.769Z,53.38
2023-05-05T22:30:53.199Z,53.82
2023-05-05T22:33:19.560Z,54.28
2023-05-05T22:35:46.266Z,54.86
2023-05-05T22:38:12.638Z,54.83
2023-05-05T22:40:39.208Z,55.49
2023-05-05T22:43:05.641Z,54.75
2023-05-05T22:45:32.150Z,55.18
2023-05-05T22:47:58.707Z,55.37
2023-05-05T22:50:25.341Z,55.58
2023-05-05T22:52:52.059Z,56.05
2023-05-05T22:55:18.436Z,56.54
2023-05-05T22:57:44.821Z,57.01
2023-05-05T23:00:11.455Z,58.22
2023-05-05T23:02:38.190Z,59.17
2023-05-05T23:05:04.952Z,59.27
2023-05-05T23:07:31.347Z,60.16
2023-05-05T23:09:58.008Z,60.39
2023-05-05T23:12:24.521Z,59.79
2023-05-05T23:14:51.075Z,61.96
2023-05-05T23:17:17.539Z,62.57
2023-05-05T23:19:47.556Z,63.42
2023-05-05T23:22:14.300Z,64.11
2023-05-05T23:24:40.676Z,66.60
2023-05-05T23:27:07.077Z,66.48
2023-05-05T23:29:33.455Z,67.83
2023-05-05T23:31:59.841Z,68.44
2023-05-05T23:34:27.046Z,69.09
2023-05-05T23:36:53.512Z,69.55
2023-05-05T23:39:19.902Z,70.47
2023-05-05T23:41:46.270Z,69.68
2023-05-05T23:44:13.102Z,70.05
2023-05-05T23:46:39.550Z,69.95
2023-05-05T23:49:06.019Z,71.32
2023-05-05T23:51:33.146Z,72.11
2023-05-05T23:53:59.547Z,72.88
2023-05-05T23:56:26.287Z,71.48
2023-05-05T23:58:53.137Z,72.16
